createdAt,value
2023-02-18T00:00:17.493Z,13.89
2023-02-18T00:05:21.208Z,13.83
2023-02-18T00:10:24.665Z,13.85
2023-02-18T00:15:29.646Z,13.85
2023-02-18T00:20:35.926Z,13.83
2023-02-18T00:25:39.375Z,13.81
2023-02-18T00:30:44.729Z,13.84
2023-02-18T00:35:48.457Z,13.82
2023-02-18T00:40:52.423Z,13.82
2023-02-18T00:45:57.321Z,13.81
2023-02-18T00:51:01.964Z,13.81
2023-02-18T00:56:06.426Z,13.80
2023-02-18T01:01:12.035Z,13.83
2023-02-18T01:06:15.636Z,13.79
2023-02-18T01:11:19.420Z,13.77
2023-02-18T01:16:24.600Z,13.80
2023-02-18T01:21:28.239Z,13.80
2023-02-18T01:26:33.204Z,13.80
2023-02-18T01:31:38.228Z,13.80
2023-02-18T01:36:41.674Z,13.79
2023-02-18T01:41:45.171Z,13.75
2023-02-18T01:46:50.540Z,13.75
2023-02-18T01:51:56.379Z,13.77
2023-02-18T01:57:03.099Z,13.76
2023-02-18T02:02:10.420Z,13.74
2023-02-18T02:07:14.135Z,13.76
2023-02-18T02:12:34.821Z,13.76
2023-02-18T02:17:46.622Z,13.77
2023-02-18T02:23:36.334Z,13.79
2023-02-18T02:29:04.789Z,13.78
2023-02-18T02:34:30.656Z,13.77
2023-02-18T02:39:39.709Z,13.77
2023-02-18T02:44:47.481Z,13.76
2023-02-18T02:49:58.173Z,13.74
2023-02-18T02:55:01.901Z,13.74
2023-02-18T03:00:10.375Z,13.77
2023-02-18T03:05:23.723Z,13.80
2023-02-18T03:10:38.224Z,13.74
2023-02-18T03:15:45.269Z,13.71
2023-02-18T03:20:53.352Z,13.67
2023-02-18T03:25:58.081Z,13.67
2023-02-18T03:31:04.166Z,13.65
2023-02-18T03:36:10.523Z,13.67
2023-02-18T03:41:14.044Z,13.65
2023-02-18T03:46:17.439Z,13.64
2023-02-18T03:51:22.627Z,13.68
2023-02-18T03:56:26.080Z,13.72
2023-02-18T04:01:29.723Z,13.68
2023-02-18T04:06:34.503Z,13.67
2023-02-18T04:11:38.554Z,13.66
2023-02-18T04:16:42.692Z,13.70
2023-02-18T04:21:47.487Z,13.66
2023-02-18T04:26:50.863Z,13.67
2023-02-18T04:31:54.266Z,13.68
2023-02-18T04:36:59.038Z,13.66
2023-02-18T04:42:02.774Z,13.65
2023-02-18T04:47:06.780Z,13.64
2023-02-18T04:52:11.555Z,13.65
2023-02-18T04:57:14.929Z,13.60
2023-02-18T05:02:18.433Z,13.63
2023-02-18T05:07:23.230Z,13.63
2023-02-18T05:12:26.631Z,13.62
2023-02-18T05:17:29.994Z,13.66
2023-02-18T05:22:34.767Z,13.64
2023-02-18T05:27:38.131Z,13.63
2023-02-18T05:32:41.497Z,13.63
2023-02-18T05:37:46.272Z,13.60
2023-02-18T05:42:49.679Z,13.60
2023-02-18T05:47:53.101Z,13.60
2023-02-18T05:52:57.875Z,13.59
2023-02-18T05:58:01.223Z,13.57
2023-02-18T06:03:04.661Z,13.59
2023-02-18T06:08:09.442Z,13.56
2023-02-18T06:13:12.854Z,13.55
2023-02-18T06:18:16.211Z,13.54
2023-02-18T06:23:21.005Z,13.56
2023-02-18T06:28:24.365Z,13.52
2023-02-18T06:33:27.863Z,13.51
2023-02-18T06:38:32.579Z,13.51
2023-02-18T06:43:36.393Z,13.53
2023-02-18T06:48:40.112Z,13.52
2023-02-18T06:53:44.899Z,13.50
2023-02-18T06:58:48.259Z,13.51
2023-02-18T07:03:51.645Z,13.50
2023-02-18T07:08:56.472Z,13.51
2023-02-18T07:13:59.873Z,13.49
2023-02-18T07:19:03.283Z,13.48
2023-02-18T07:24:08.612Z,13.46
2023-02-18T07:29:11.999Z,13.46
2023-02-18T07:34:15.391Z,13.48
2023-02-18T07:39:20.970Z,13.49
2023-02-18T07:44:24.331Z,13.45
2023-02-18T07:49:27.717Z,13.46
2023-02-18T07:54:32.530Z,13.43
2023-02-18T07:59:35.932Z,13.42
2023-02-18T08:04:39.276Z,13.42
2023-02-18T08:09:44.187Z,13.43
2023-02-18T08:14:47.556Z,13.41
2023-02-18T08:19:51.039Z,13.42
2023-02-18T08:24:57.388Z,13.38
2023-02-18T08:30:00.824Z,13.39
2023-02-18T08:35:04.262Z,13.40
2023-02-18T08:40:10.736Z,13.42
2023-02-18T08:45:14.162Z,13.46
2023-02-18T08:50:17.740Z,13.44
2023-02-18T08:55:22.616Z,13.46
2023-02-18T09:00:26.155Z,13.47
2023-02-18T09:05:29.567Z,13.46
2023-02-18T09:10:34.338Z,13.47
2023-02-18T09:15:37.778Z,13.47
2023-02-18T09:20:41.641Z,13.50
2023-02-18T09:25:46.622Z,13.50
2023-02-18T09:30:50.080Z,13.48
2023-02-18T09:35:53.459Z,13.50
2023-02-18T09:40:59.503Z,13.49
2023-02-18T09:46:04.407Z,13.49
2023-02-18T09:51:08.083Z,13.50
2023-02-18T09:56:15.725Z,13.51
2023-02-18T10:01:23.483Z,13.54
2023-02-18T10:06:28.620Z,13.55
2023-02-18T10:11:37.070Z,13.60
2023-02-18T10:16:41.091Z,13.60
2023-02-18T10:21:45.039Z,13.58
2023-02-18T10:26:50.070Z,13.59
2023-02-18T10:31:58.215Z,13.63
2023-02-18T10:37:08.137Z,13.64
2023-02-18T10:42:31.927Z,13.63
2023-02-18T10:47:40.400Z,13.62
2023-02-18T10:52:46.157Z,13.64
2023-02-18T10:57:52.274Z,13.62
2023-02-18T11:03:15.633Z,13.63
2023-02-18T11:08:22.545Z,13.62
2023-02-18T11:13:29.659Z,13.65
2023-02-18T11:18:40.395Z,13.67
2023-02-18T11:23:49.451Z,13.63
2023-02-18T11:28:59.782Z,13.76
2023-02-18T11:34:05.608Z,14.07
2023-02-18T11:39:19.836Z,14.30
2023-02-18T11:44:29.065Z,14.31
2023-02-18T11:49:34.129Z,14.25
2023-02-18T11:54:37.499Z,14.28
2023-02-18T11:59:42.963Z,14.29
2023-02-18T12:04:48.907Z,14.34
2023-02-18T12:09:55.000Z,14.39
2023-02-18T12:15:00.911Z,14.43
2023-02-18T12:20:13.915Z,14.45
2023-02-18T12:25:34.224Z,14.50
2023-02-18T12:31:00.128Z,14.55
2023-02-18T12:36:12.358Z,14.60
2023-02-18T12:41:34.779Z,14.62
2023-02-18T12:46:53.018Z,14.65
2023-02-18T12:52:06.745Z,14.65
2023-02-18T12:57:35.878Z,14.70
2023-02-18T13:03:05.214Z,14.70
2023-02-18T13:08:21.568Z,14.71
2023-02-18T13:13:28.146Z,14.72
2023-02-18T13:18:35.757Z,14.73
2023-02-18T13:23:50.693Z,14.75
2023-02-18T13:29:04.859Z,14.74
2023-02-18T13:34:14.552Z,14.74
2023-02-18T13:39:20.734Z,14.74
2023-02-18T13:45:24.575Z,14.76
2023-02-18T13:50:44.884Z,14.87
2023-02-18T13:55:56.066Z,14.89
2023-02-18T14:01:03.977Z,15.03
2023-02-18T14:06:19.828Z,14.97
2023-02-18T14:11:41.733Z,15.38
2023-02-18T14:17:26.040Z,15.48
2023-02-18T14:22:34.680Z,15.54
2023-02-18T14:27:39.655Z,15.57
2023-02-18T14:32:43.557Z,15.60
2023-02-18T14:38:06.644Z,15.59
2023-02-18T14:43:15.600Z,15.60
2023-02-18T14:48:43.309Z,15.61
2023-02-18T14:53:48.284Z,15.61
2023-02-18T14:58:54.522Z,15.62
2023-02-18T15:03:58.527Z,15.62
2023-02-18T15:09:07.084Z,15.66
2023-02-18T15:14:12.694Z,15.64
2023-02-18T15:19:19.094Z,15.64
2023-02-18T15:24:27.725Z,15.66
2023-02-18T15:29:35.596Z,15.67
2023-02-18T15:34:40.106Z,15.68
2023-02-18T15:39:45.426Z,15.70
2023-02-18T15:44:50.686Z,15.72
2023-02-18T15:49:55.622Z,15.72
2023-02-18T15:55:03.716Z,15.73
2023-02-18T16:00:16.030Z,15.73
2023-02-18T16:05:19.644Z,15.75
2023-02-18T16:10:30.035Z,15.74
2023-02-18T16:15:39.142Z,15.75
2023-02-18T16:20:42.599Z,15.77
2023-02-18T16:25:49.905Z,15.79
2023-02-18T16:30:53.407Z,15.80
2023-02-18T16:35:57.966Z,15.82
2023-02-18T16:41:02.864Z,15.82
2023-02-18T16:46:10.189Z,15.84
2023-02-18T16:51:17.196Z,15.85
2023-02-18T16:56:24.866Z,15.86
2023-02-18T17:01:30.034Z,15.88
2023-02-18T17:06:33.953Z,15.87
2023-02-18T17:11:38.821Z,15.88
2023-02-18T17:16:42.369Z,15.88
2023-02-18T17:21:48.380Z,15.91
2023-02-18T17:26:53.637Z,15.91
2023-02-18T17:31:58.018Z,15.93
2023-02-18T17:37:01.507Z,15.94
2023-02-18T17:42:06.770Z,15.96
2023-02-18T17:47:10.228Z,15.96
2023-02-18T17:52:26.544Z,15.97
2023-02-18T17:57:31.416Z,15.99
2023-02-18T18:02:34.905Z,16.01
2023-02-18T18:07:38.322Z,16.02
2023-02-18T18:12:43.951Z,16.04
2023-02-18T18:17:47.567Z,16.04
2023-02-18T18:22:51.530Z,16.06
2023-02-18T18:27:56.670Z,16.08
2023-02-18T18:33:00.405Z,16.11
2023-02-18T18:38:04.255Z,16.12
2023-02-18T18:43:09.397Z,16.15
2023-02-18T18:48:12.858Z,16.17
2023-02-18T18:53:19.439Z,16.18
2023-02-18T18:58:24.933Z,16.20
2023-02-18T19:03:29.676Z,16.18
2023-02-18T19:08:33.645Z,16.17
2023-02-18T19:13:38.529Z,16.18
2023-02-18T19:18:42.050Z,16.19
2023-02-18T19:23:45.575Z,16.20
2023-02-18T19:28:50.440Z,16.24
2023-02-18T19:33:54.407Z,16.25
2023-02-18T19:38:57.839Z,16.25
2023-02-18T19:44:02.733Z,16.25
2023-02-18T19:49:06.173Z,16.24
2023-02-18T19:54:09.592Z,16.23
2023-02-18T19:59:14.474Z,16.24
2023-02-18T20:04:17.911Z,16.23
2023-02-18T20:09:21.326Z,16.26
2023-02-18T20:14:27.278Z,16.33
2023-02-18T20:19:31.940Z,16.36
2023-02-18T20:24:35.694Z,16.36
2023-02-18T20:29:40.494Z,16.36
2023-02-18T20:34:43.852Z,16.38
2023-02-18T20:39:47.253Z,16.38
2023-02-18T20:44:52.451Z,16.40
2023-02-18T20:49:55.881Z,16.42
2023-02-18T20:54:59.272Z,16.46
2023-02-18T21:00:06.701Z,16.46
2023-02-18T21:05:10.066Z,16.46
2023-02-18T21:10:13.433Z,16.47
2023-02-18T21:15:18.418Z,16.49
2023-02-18T21:20:21.812Z,16.50
2023-02-18T21:25:25.207Z,16.50
2023-02-18T21:30:30.530Z,16.47
2023-02-18T21:35:36.408Z,16.53
2023-02-18T21:40:39.843Z,16.53
2023-02-18T21:45:44.627Z,16.53
2023-02-18T21:50:48.018Z,16.59
2023-02-18T21:56:03.323Z,16.60
2023-02-18T22:01:08.921Z,16.62
2023-02-18T22:06:12.440Z,16.61
2023-02-18T22:11:15.817Z,16.62
2023-02-18T22:16:20.614Z,16.64
2023-02-18T22:21:24.042Z,16.62
2023-02-18T22:26:27.436Z,16.69
2023-02-18T22:31:32.753Z,16.69
2023-02-18T22:36:36.173Z,16.71
2023-02-18T22:41:39.738Z,16.71
2023-02-18T22:46:44.811Z,16.72
2023-02-18T22:51:48.261Z,16.74
2023-02-18T22:56:52.396Z,16.76
2023-02-18T23:01:57.314Z,16.75
2023-02-18T23:07:00.750Z,16.78
2023-02-18T23:12:04.151Z,16.80
2023-02-18T23:17:15.007Z,16.80
2023-02-18T23:22:20.167Z,16.81
2023-02-18T23:27:24.567Z,16.83
2023-02-18T23:32:30.769Z,16.88
2023-02-18T23:37:51.615Z,16.90
2023-02-18T23:42:55.134Z,16.89
2023-02-18T23:47:59.884Z,16.82
2023-02-18T23:53:03.259Z,16.87
2023-02-18T23:58:06.612Z,16.92
